Time;durP1;ratioP1;P1;durP2;ratioP2;P2;SDS_P1;SDS_P2;PMS_P1;PMS_P2;Temp;Humidity;BMP_temperature;BMP_pressure;BME280_temperature;BME280_humidity;BME280_pressure;Samples;Min_cycle;Max_cycle;Signal;HPM_P1;HPM_P2
2021/11/24 00:01:21;;;;;;;290.20;79.38;;;;;;;6.00;100.00;102320.75;5057866;28;20050;-85
2021/11/24 00:03:48;;;;;;;276.98;90.45;;;;;;;6.02;100.00;102312.69;5049893;28;20486;-85
2021/11/24 00:06:14;;;;;;;291.83;91.28;;;;;;;6.02;100.00;102310.03;5033299;28;20067;-85
2021/11/24 00:08:41;;;;;;;243.60;84.28;;;;;;;5.99;100.00;102305.75;5047501;28;20041;-84
2021/11/24 00:11:08;;;;;;;363.17;87.43;;;;;;;5.97;100.00;102312.13;5049483;28;20036;-85
2021/11/24 00:13:38;;;;;;;204.25;64.40;;;;;;;5.90;100.00;102308.97;5049049;28;20040;-83
2021/11/24 00:16:09;;;;;;;183.93;64.65;;;;;;;5.89;100.00;102307.22;5063657;28;20032;-85
2021/11/24 00:18:35;;;;;;;184.35;67.50;;;;;;;5.87;100.00;102306.50;5064212;28;20068;-84
2021/11/24 00:21:01;;;;;;;219.68;72.97;;;;;;;5.87;100.00;102302.00;5063279;28;20037;-84
2021/11/24 00:23:27;;;;;;;180.75;65.35;;;;;;;5.87;100.00;102303.81;5051199;28;20051;-84
2021/11/24 00:25:53;;;;;;;164.40;69.47;;;;;;;5.86;100.00;102307.41;5047821;28;20036;-86
2021/11/24 00:28:20;;;;;;;153.30;62.35;;;;;;;5.83;100.00;102300.47;5066626;28;20045;-84
2021/11/24 00:30:48;;;;;;;163.38;72.28;;;;;;;5.85;100.00;102301.25;5071479;28;20040;-88
2021/11/24 00:33:14;;;;;;;184.60;77.60;;;;;;;5.87;100.00;102299.34;5064470;28;20053;-86
2021/11/24 00:35:41;;;;;;;177.10;73.50;;;;;;;5.88;100.00;102292.22;5068892;28;20171;-86
2021/11/24 00:38:12;;;;;;;169.75;73.28;;;;;;;5.87;100.00;102290.50;5070307;28;20040;-84
2021/11/24 00:40:41;;;;;;;182.73;69.25;;;;;;;5.83;100.00;102288.97;5049885;28;20044;-86
2021/11/24 00:43:07;;;;;;;161.82;69.18;;;;;;;5.82;100.00;102289.94;5047933;28;20052;-84
2021/11/24 00:45:32;;;;;;;156.50;68.32;;;;;;;5.82;100.00;102292.59;5039782;28;20539;-86
2021/11/24 00:48:00;;;;;;;166.27;74.60;;;;;;;5.84;100.00;102296.88;5047859;28;20033;-85
2021/11/24 00:50:25;;;;;;;158.18;75.72;;;;;;;5.82;100.00;102296.13;5066810;28;20044;-87
2021/11/24 00:52:52;;;;;;;162.65;68.82;;;;;;;5.82;100.00;102293.44;5068341;28;20534;-84
2021/11/24 00:55:20;;;;;;;152.25;65.45;;;;;;;5.80;100.00;102291.81;5052915;28;20088;-84
2021/11/24 00:57:49;;;;;;;159.98;64.20;;;;;;;5.79;100.00;102282.13;5052435;28;20075;-83
2021/11/24 01:00:15;;;;;;;177.13;68.30;;;;;;;5.80;100.00;102281.16;5060652;28;20416;-84
2021/11/24 01:02:44;;;;;;;166.38;68.25;;;;;;;5.79;100.00;102276.81;5066407;28;20029;-84
2021/11/24 01:05:19;;;;;;;179.82;81.20;;;;;;;5.81;100.00;102277.53;5065135;28;20052;-86
2021/11/24 01:07:46;;;;;;;188.13;77.47;;;;;;;5.82;100.00;102279.28;5035216;28;20044;-85
2021/11/24 01:10:13;;;;;;;194.07;79.90;;;;;;;5.82;100.00;102277.47;5051099;28;20040;-86
2021/11/24 01:12:42;;;;;;;192.15;74.65;;;;;;;5.82;100.00;102277.47;5060348;28;20553;-86
2021/11/24 01:15:08;;;;;;;;;;;;;;;5.84;100.00;102274.69;5035218;28;20060;-86
2021/11/24 01:17:36;;;;;;;212.70;86.65;;;;;;;5.77;100.00;102276.03;5077096;28;19928;-85
2021/11/24 01:20:03;;;;;;;205.05;82.90;;;;;;;5.77;100.00;102271.56;5062598;28;20047;-86
2021/11/24 01:22:39;;;;;;;204.73;82.85;;;;;;;5.81;100.00;102274.88;5049015;28;20123;-87
2021/11/24 01:25:05;;;;;;;232.00;89.57;;;;;;;5.83;100.00;102279.16;5034156;28;20051;-83
2021/11/24 01:27:33;;;;;;;188.30;84.72;;;;;;;5.85;100.00;102282.59;5046878;28;20044;-87
2021/11/24 01:30:04;;;;;;;277.08;97.05;;;;;;;5.87;100.00;102277.19;5048008;28;20071;-85
2021/11/24 01:32:36;;;;;;;262.95;95.95;;;;;;;5.86;100.00;102268.31;5050975;28;20041;-85
2021/11/24 01:35:04;;;;;;;343.75;103.53;;;;;;;5.87;100.00;102272.72;5051182;28;20119;-85
2021/11/24 01:37:33;;;;;;;285.08;88.63;;;;;;;5.87;100.00;102269.19;5035242;28;20499;-84
2021/11/24 01:39:59;;;;;;;335.88;94.72;;;;;;;5.86;100.00;102270.97;5031102;28;20068;-87
2021/11/24 01:42:39;;;;;;;306.17;96.57;;;;;;;5.85;100.00;102266.59;5066214;28;20089;-86
2021/11/24 01:45:06;;;;;;;314.48;94.93;;;;;;;5.86;100.00;102268.31;5063035;28;20090;-86
2021/11/24 01:47:32;;;;;;;411.33;101.32;;;;;;;5.86;100.00;102262.13;5055397;28;20145;-85
2021/11/24 01:50:11;;;;;;;325.98;96.53;;;;;;;5.85;100.00;102255.94;5068554;28;20041;-86
2021/11/24 01:52:39;;;;;;;415.88;96.28;;;;;;;5.85;100.00;102249.78;5039665;28;20037;-83
2021/11/24 01:55:07;;;;;;;352.65;101.05;;;;;;;5.87;100.00;102254.06;5049633;28;20703;-85
2021/11/24 01:57:33;;;;;;;435.13;107.90;;;;;;;5.84;100.00;102246.25;5047087;28;20048;-84
2021/11/24 01:59:59;;;;;;;528.45;112.13;;;;;;;5.84;100.00;102251.59;5046286;28;20485;-85
2021/11/24 02:02:28;;;;;;;483.52;100.43;;;;;;;5.86;100.00;102251.47;5050900;28;20044;-85
2021/11/24 02:04:54;;;;;;;350.90;92.05;;;;;;;5.83;100.00;102251.66;5067532;28;20094;-85
2021/11/24 02:07:31;;;;;;;424.95;100.70;;;;;;;5.84;100.00;102248.03;5051674;28;20045;-84
2021/11/24 02:10:03;;;;;;;542.20;104.63;;;;;;;5.83;100.00;102235.69;5046638;28;20485;-86
2021/11/24 02:12:29;;;;;;;577.50;115.93;;;;;;;5.84;100.00;102237.38;5031025;28;20670;-85
2021/11/24 02:14:55;;;;;;;394.50;88.72;;;;;;;5.84;100.00;102240.06;5041551;28;20170;-85
2021/11/24 02:17:20;;;;;;;400.90;86.95;;;;;;;5.85;100.00;102236.47;5062507;28;20064;-84
2021/11/24 02:19:46;;;;;;;350.77;81.35;;;;;;;5.83;100.00;102233.88;5070240;28;20032;-85
2021/11/24 02:22:12;;;;;;;363.38;90.38;;;;;;;5.81;100.00;102227.81;5040425;28;20645;-85
2021/11/24 02:24:38;;;;;;;302.50;74.50;;;;;;;5.80;100.00;102230.56;5023402;28;20456;-85
2021/11/24 02:27:08;;;;;;;544.75;110.53;;;;;;;5.80;100.00;102226.06;5073239;28;20032;-85
2021/11/24 02:29:36;;;;;;;445.58;102.07;;;;;;;5.81;100.00;102221.59;5056530;28;20079;-85
2021/11/24 02:32:03;;;;;;;352.50;91.18;;;;;;;5.79;100.00;102218.19;5059819;28;20035;-84
2021/11/24 02:34:35;;;;;;;327.95;73.43;;;;;;;5.77;100.00;102220.09;5069411;28;20474;-87
2021/11/24 02:37:02;;;;;;;314.88;68.40;;;;;;;5.71;100.00;102217.84;5073094;28;20079;-84
2021/11/24 02:39:29;;;;;;;292.75;74.82;;;;;;;5.74;100.00;102222.97;5070762;28;20048;-84
2021/11/24 02:42:02;;;;;;;523.92;103.57;;;;;;;5.76;100.00;102223.72;5052523;28;20595;-85
2021/11/24 02:44:35;;;;;;;609.97;108.47;;;;;;;5.78;100.00;102217.34;5073789;28;20640;-85
2021/11/24 02:47:11;;;;;;;466.80;87.10;;;;;;;5.75;100.00;102222.00;5056965;28;20449;-85
2021/11/24 02:49:39;;;;;;;291.15;79.32;;;;;;;5.76;100.00;102213.06;5056688;28;20051;-85
2021/11/24 02:52:05;;;;;;;404.20;83.15;;;;;;;5.75;100.00;102217.53;5056534;28;20052;-85
2021/11/24 02:54:32;;;;;;;283.33;70.57;;;;;;;5.76;100.00;102213.06;5053734;28;20088;-88
2021/11/24 02:57:03;;;;;;;278.30;75.18;;;;;;;5.78;100.00;102216.47;5048968;28;20040;-86
2021/11/24 02:59:29;;;;;;;360.85;74.90;;;;;;;5.76;100.00;102207.75;5040842;28;20098;-85
2021/11/24 03:02:01;;;;;;;284.63;69.85;;;;;;;5.73;100.00;102195.47;5045093;28;20040;-84
2021/11/24 03:04:37;;;;;;;256.98;63.60;;;;;;;5.74;100.00;102193.66;5036559;28;20393;-84
2021/11/24 03:07:03;;;;;;;313.42;80.43;;;;;;;5.75;100.00;102184.72;5072496;28;20032;-87
2021/11/24 03:09:35;;;;;;;355.30;84.63;;;;;;;5.76;100.00;102192.63;5059849;28;20051;-85
2021/11/24 03:12:03;;;;;;;244.80;64.55;;;;;;;5.74;100.00;102177.69;5051295;28;20449;-84
2021/11/24 03:14:58;;;;;;;208.10;58.60;;;;;;;5.72;100.00;102174.25;5056702;28;20047;-84
2021/11/24 03:17:23;;;;;;;247.40;76.78;;;;;;;5.74;100.00;102173.19;5073319;28;20139;-85
2021/11/24 03:20:03;;;;;;;221.95;71.93;;;;;;;5.75;100.00;102166.91;5066298;28;20039;-86
2021/11/24 03:22:32;;;;;;;239.45;70.35;;;;;;;5.73;100.00;102160.00;5038158;28;20056;-85
2021/11/24 03:25:07;;;;;;;273.48;73.90;;;;;;;5.75;100.00;102163.41;5025382;28;20056;-86
2021/11/24 03:27:35;;;;;;;233.65;67.35;;;;;;;5.75;100.00;102155.41;5072117;28;20041;-85
2021/11/24 03:30:07;;;;;;;142.60;53.93;;;;;;;5.75;100.00;102142.94;5072141;28;20051;-85
2021/11/24 03:32:33;;;;;;;144.75;51.08;;;;;;;5.77;100.00;102150.84;5055871;28;20037;-85
2021/11/24 03:34:58;;;;;;;140.13;50.72;;;;;;;5.78;100.00;102147.22;5035511;28;20048;-86
2021/11/24 03:37:24;;;;;;;125.43;49.97;;;;;;;5.78;100.00;102148.09;5050256;28;20048;-85
2021/11/24 03:39:50;;;;;;;134.57;52.13;;;;;;;5.79;100.00;102140.94;5052827;28;20039;-86
2021/11/24 03:42:16;;;;;;;145.65;54.95;;;;;;;5.78;100.00;102140.09;5063428;28;20040;-86
2021/11/24 03:44:43;;;;;;;167.15;59.95;;;;;;;5.78;100.00;102134.78;5055779;28;20040;-87
2021/11/24 03:47:09;;;;;;;210.00;59.10;;;;;;;5.78;100.00;102128.56;5072878;28;20044;-85
2021/11/24 03:49:34;;;;;;;216.82;59.97;;;;;;;5.78;100.00;102136.56;5055663;28;20508;-86
2021/11/24 03:52:00;;;;;;;258.00;67.03;;;;;;;5.80;100.00;102129.31;5053492;28;20120;-85
2021/11/24 03:54:25;;;;;;;293.25;73.68;;;;;;;5.83;100.00;102129.13;5072627;28;20074;-84
2021/11/24 03:56:50;;;;;;;337.80;81.28;;;;;;;5.80;100.00;102130.19;5073837;28;20036;-85
2021/11/24 03:59:16;;;;;;;228.82;67.07;;;;;;;5.79;100.00;102131.16;5038240;28;20094;-84
2021/11/24 04:01:41;;;;;;;399.20;75.72;;;;;;;5.78;100.00;102124.13;5035155;28;20394;-86
2021/11/24 04:04:07;;;;;;;352.35;72.28;;;;;;;5.78;100.00;102126.78;5051624;28;20439;-86
2021/11/24 04:06:32;;;;;;;222.98;69.32;;;;;;;5.77;100.00;102119.72;5053101;28;20047;-83
2021/11/24 04:08:58;;;;;;;275.02;70.22;;;;;;;5.79;100.00;102123.16;5024238;28;20103;-85
2021/11/24 04:11:25;;;;;;;254.20;73.50;;;;;;;5.79;100.00;102122.31;5051574;28;20040;-85
2021/11/24 04:13:50;;;;;;;264.63;76.97;;;;;;;5.80;100.00;102124.00;5054944;28;20456;-84
2021/11/24 04:16:16;;;;;;;309.30;82.80;;;;;;;5.82;100.00;102127.44;5054859;28;20120;-85
2021/11/24 04:18:41;;;;;;;240.18;75.15;;;;;;;5.82;100.00;102127.44;5073211;28;20048;-85
2021/11/24 04:21:07;;;;;;;255.80;79.80;;;;;;;5.81;100.00;102121.25;5056426;28;20094;-85
2021/11/24 04:23:32;;;;;;;385.38;90.57;;;;;;;5.82;100.00;102120.28;5073471;28;20048;-85
2021/11/24 04:25:57;;;;;;;534.33;102.65;;;;;;;5.81;100.00;102109.72;5037972;28;20480;-85
2021/11/24 04:28:23;;;;;;;541.97;106.45;;;;;;;5.82;100.00;102111.44;5072890;28;20043;-86
2021/11/24 04:30:48;;;;;;;353.58;93.85;;;;;;;5.83;100.00;102119.31;5072887;28;20037;-84
2021/11/24 04:33:14;;;;;;;415.40;94.60;;;;;;;5.82;100.00;102114.09;5071725;28;20102;-84
2021/11/24 04:35:40;;;;;;;309.40;87.80;;;;;;;5.79;100.00;102104.50;5054575;28;20036;-86
2021/11/24 04:38:06;;;;;;;487.15;103.95;;;;;;;5.81;100.00;102104.38;5052701;28;20040;-85
2021/11/24 04:40:32;;;;;;;511.58;102.15;;;;;;;5.81;100.00;102097.28;5071988;28;20036;-85
2021/11/24 04:43:00;;;;;;;425.30;97.75;;;;;;;5.80;100.00;102094.69;5052831;28;20090;-84
2021/11/24 04:45:26;;;;;;;366.30;97.32;;;;;;;5.80;100.00;102089.38;5054033;28;20044;-86
2021/11/24 04:47:51;;;;;;;336.48;95.32;;;;;;;5.81;100.00;102083.06;5070614;28;20365;-84
2021/11/24 04:50:17;;;;;;;405.90;99.85;;;;;;;5.81;100.00;102085.75;5047898;28;20512;-85
2021/11/24 04:52:43;;;;;;;445.45;104.13;;;;;;;5.79;100.00;102088.53;5037000;28;20067;-85
2021/11/24 04:55:10;;;;;;;504.27;107.30;;;;;;;5.78;100.00;102089.50;5035121;28;20040;-84
2021/11/24 04:57:35;;;;;;;475.25;103.07;;;;;;;5.81;100.00;102088.41;5018359;28;20174;-86
2021/11/24 05:00:04;;;;;;;480.23;103.93;;;;;;;5.80;100.00;102087.56;5050197;28;20119;-85
2021/11/24 05:02:31;;;;;;;330.48;83.72;;;;;;;5.79;100.00;102080.53;5065705;28;20049;-84
2021/11/24 05:04:56;;;;;;;198.77;59.63;;;;;;;5.78;100.00;102085.94;5053531;28;20109;-84
2021/11/24 05:07:22;;;;;;;212.57;60.60;;;;;;;5.78;100.00;102084.16;5071225;28;20045;-85
2021/11/24 05:09:47;;;;;;;135.50;46.20;;;;;;;5.79;100.00;102085.00;5071801;28;20079;-85
2021/11/24 05:12:12;;;;;;;158.15;45.83;;;;;;;5.78;100.00;102085.94;5050470;28;20059;-86
2021/11/24 05:14:38;;;;;;;145.48;45.95;;;;;;;5.76;100.00;102080.72;5061542;28;20552;-86
2021/11/24 05:17:05;;;;;;;195.75;50.55;;;;;;;5.72;100.00;102073.88;5052609;28;20067;-85
2021/11/24 05:19:35;;;;;;;187.52;52.42;;;;;;;5.68;100.00;102066.22;5022343;28;20497;-86
2021/11/24 05:22:00;;;;;;;;;;;;;;;5.69;100.00;102071.44;5053402;28;20040;-85
2021/11/24 05:24:25;;;;;;;241.60;58.75;;;;;;;5.61;100.00;102071.06;5053548;28;19912;-84
2021/11/24 05:26:51;;;;;;;225.93;55.78;;;;;;;5.62;100.00;102076.31;5033911;28;20063;-85
2021/11/24 05:29:17;;;;;;;259.83;52.60;;;;;;;5.62;100.00;102083.44;5064609;28;20041;-84
2021/11/24 05:31:43;;;;;;;272.70;57.78;;;;;;;5.62;100.00;102081.63;5065712;28;20036;-86
2021/11/24 05:34:09;;;;;;;260.92;57.25;;;;;;;5.64;100.00;102079.75;5047953;28;20082;-85
2021/11/24 05:36:35;;;;;;;249.05;54.53;;;;;;;5.65;100.00;102077.94;5051960;28;20036;-85
2021/11/24 05:39:07;;;;;;;258.02;54.22;;;;;;;5.64;100.00;102077.06;5069099;28;20336;-84
2021/11/24 05:41:37;;;;;;;158.40;47.20;;;;;;;5.63;100.00;102070.03;5066126;28;20028;-85
2021/11/24 05:44:15;;;;;;;172.60;46.92;;;;;;;5.62;100.00;102062.16;5045886;28;20117;-86
2021/11/24 05:46:50;;;;;;;174.70;50.25;;;;;;;5.63;100.00;102070.03;5064871;28;20040;-85
2021/11/24 05:49:18;;;;;;;230.68;51.47;;;;;;;5.61;100.00;102061.31;5063515;28;20123;-85
2021/11/24 05:51:44;;;;;;;222.85;49.22;;;;;;;5.58;100.00;102063.28;5065161;28;20032;-85
2021/11/24 05:54:10;;;;;;;210.68;47.92;;;;;;;5.60;100.00;102061.38;5041230;28;20093;-85
2021/11/24 05:56:38;;;;;;;231.00;49.28;;;;;;;5.58;100.00;102058.84;5034572;28;20046;-86
2021/11/24 05:59:07;;;;;;;211.25;56.05;;;;;;;5.58;100.00;102055.28;5061142;28;20039;-86
2021/11/24 06:01:35;;;;;;;197.85;49.45;;;;;;;5.60;100.00;102051.59;5045403;28;20064;-84
2021/11/24 06:04:04;;;;;;;190.82;49.58;;;;;;;5.62;100.00;102048.84;5047432;28;20512;-85
2021/11/24 06:06:30;;;;;;;199.90;54.67;;;;;;;5.60;100.00;102048.91;5043110;28;20074;-86
2021/11/24 06:08:55;;;;;;;220.88;56.80;;;;;;;5.61;100.00;102044.44;5063286;28;20083;-86
2021/11/24 06:11:21;;;;;;;219.00;59.35;;;;;;;5.62;100.00;102035.53;5031307;28;20047;-85
2021/11/24 06:13:47;;;;;;;215.50;64.28;;;;;;;5.63;100.00;102043.38;5060507;28;20164;-85
2021/11/24 06:16:13;;;;;;;242.98;64.65;;;;;;;5.64;100.00;102041.59;5060397;28;20386;-85
2021/11/24 06:18:38;;;;;;;231.35;64.43;;;;;;;5.65;100.00;102036.16;5067597;28;20064;-85
2021/11/24 06:21:04;;;;;;;257.67;59.00;;;;;;;5.65;100.00;102030.84;5044925;28;20067;-85
2021/11/24 06:23:29;;;;;;;255.55;59.13;;;;;;;5.65;100.00;102035.31;5050560;28;20541;-84
2021/11/24 06:25:55;;;;;;;242.48;61.83;;;;;;;5.65;100.00;102036.16;5060189;28;20032;-86
2021/11/24 06:28:20;;;;;;;265.10;60.22;;;;;;;5.66;100.00;102029.03;5024999;28;20062;-86
2021/11/24 06:30:45;;;;;;;280.00;61.03;;;;;;;5.66;100.00;102024.53;5044687;28;20056;-87
2021/11/24 06:33:11;;;;;;;262.27;58.10;;;;;;;5.65;100.00;102016.66;5030972;28;20128;-85
2021/11/24 06:35:38;;;;;;;250.15;53.92;;;;;;;5.61;100.00;102024.00;5062992;28;20036;-84
2021/11/24 06:38:04;;;;;;;298.20;63.28;;;;;;;5.63;100.00;102026.56;5058303;28;20349;-85
2021/11/24 06:40:29;;;;;;;230.88;59.35;;;;;;;5.64;100.00;102029.13;5064741;28;20040;-86
2021/11/24 06:42:55;;;;;;;200.20;55.65;;;;;;;5.64;100.00;102029.13;5014121;28;20038;-85
2021/11/24 06:45:20;;;;;;;203.68;58.65;;;;;;;5.66;100.00;102029.88;5029429;28;20044;-87
2021/11/24 06:47:50;;;;;;;225.80;61.92;;;;;;;5.65;100.00;102020.19;5043691;28;20037;-86
2021/11/24 06:50:16;;;;;;;217.75;64.43;;;;;;;5.67;100.00;102020.09;5041633;28;20032;-86
2021/11/24 06:52:42;;;;;;;210.85;61.58;;;;;;;5.68;100.00;102015.63;5041952;28;20159;-86
2021/11/24 06:55:09;;;;;;;208.15;60.17;;;;;;;5.68;100.00;102021.78;5061226;28;20439;-86
2021/11/24 06:57:36;;;;;;;238.60;61.05;;;;;;;5.68;100.00;102020.94;5060233;28;20353;-85
2021/11/24 07:00:04;;;;;;;201.30;56.55;;;;;;;5.68;100.00;102024.44;5043951;28;20036;-86
2021/11/24 07:02:29;;;;;;;197.25;58.33;;;;;;;5.66;100.00;102021.88;5063011;28;20110;-86
2021/11/24 07:04:55;;;;;;;171.80;55.42;;;;;;;5.65;100.00;102014.84;5026177;28;20493;-86
2021/11/24 07:07:20;;;;;;;173.05;53.72;;;;;;;5.66;100.00;102024.53;5045281;28;20040;-85
2021/11/24 07:09:46;;;;;;;169.10;52.45;;;;;;;5.67;100.00;102022.75;5048596;28;20047;-85
2021/11/24 07:12:12;;;;;;;194.48;56.92;;;;;;;5.69;100.00;102030.63;5047263;28;20067;-86
2021/11/24 07:14:38;;;;;;;188.18;58.15;;;;;;;5.70;100.00;102025.22;5015544;28;20048;-86
2021/11/24 07:17:03;;;;;;;168.43;58.55;;;;;;;5.69;100.00;102022.63;5047703;28;20044;-86
2021/11/24 07:19:29;;;;;;;176.95;57.78;;;;;;;5.71;100.00;102023.41;5068910;28;20497;-86
2021/11/24 07:21:55;;;;;;;170.07;59.50;;;;;;;5.72;100.00;102019.75;5026660;28;20516;-85
2021/11/24 07:24:21;;;;;;;176.02;61.30;;;;;;;5.72;100.00;102019.75;5064487;28;20044;-86
2021/11/24 07:26:47;;;;;;;193.45;60.42;;;;;;;5.71;100.00;102020.72;5063766;28;20374;-86
2021/11/24 07:29:15;;;;;;;194.10;61.05;;;;;;;5.71;100.00;102018.91;5066426;28;20086;-85
2021/11/24 07:31:41;;;;;;;169.67;56.30;;;;;;;5.73;100.00;102010.84;5044752;28;20036;-86
2021/11/24 07:34:07;;;;;;;179.93;57.00;;;;;;;5.72;100.00;102019.75;5030610;28;20131;-87
2021/11/24 07:36:32;;;;;;;171.35;56.47;;;;;;;5.72;100.00;102025.09;5049938;28;20132;-85
2021/11/24 07:38:57;;;;;;;170.63;56.90;;;;;;;5.71;100.00;102015.41;5062470;28;20067;-86
2021/11/24 07:41:23;;;;;;;156.70;56.72;;;;;;;5.72;100.00;102025.94;5034545;28;20037;-86
2021/11/24 07:43:49;;;;;;;146.50;54.50;;;;;;;5.71;100.00;102023.41;5041901;28;20079;-85
2021/11/24 07:46:14;;;;;;;137.73;49.67;;;;;;;5.70;100.00;102017.22;5067284;28;20323;-86
2021/11/24 07:48:40;;;;;;;135.43;52.53;;;;;;;5.73;100.00;102021.50;5048344;28;20070;-86
2021/11/24 07:51:05;;;;;;;139.32;47.95;;;;;;;5.72;100.00;102020.63;5053071;28;20504;-86
2021/11/24 07:53:31;;;;;;;191.98;52.35;;;;;;;5.71;100.00;102023.41;5031892;28;20044;-86
2021/11/24 07:55:57;;;;;;;239.93;52.38;;;;;;;5.69;100.00;102028.81;5061976;28;20485;-85
2021/11/24 07:58:22;;;;;;;256.48;57.65;;;;;;;5.68;100.00;102019.13;5056304;28;20141;-86
2021/11/24 08:00:48;;;;;;;269.77;57.47;;;;;;;5.69;100.00;102017.31;5046558;28;20044;-86
2021/11/24 08:03:13;;;;;;;312.08;62.03;;;;;;;5.68;100.00;102015.63;5015134;28;20052;-85
2021/11/24 08:05:39;;;;;;;281.58;56.28;;;;;;;5.68;100.00;102012.94;5047477;28;20040;-85
2021/11/24 08:08:06;;;;;;;338.48;56.30;;;;;;;5.67;100.00;102022.75;5059511;28;20048;-86
2021/11/24 08:10:31;;;;;;;256.48;59.25;;;;;;;5.66;100.00;102016.56;5046436;28;20047;-86
2021/11/24 08:12:57;;;;;;;280.98;57.35;;;;;;;5.69;100.00;102014.66;5048055;28;20480;-85
2021/11/24 08:15:22;;;;;;;271.08;52.67;;;;;;;5.66;100.00;102013.88;5031236;28;20174;-86
2021/11/24 08:17:48;;;;;;;293.02;53.53;;;;;;;5.68;100.00;101996.97;5057138;28;20122;-86
2021/11/24 08:20:21;;;;;;;312.30;76.03;;;;;;;5.71;100.00;101994.09;5045817;28;20070;-86
2021/11/24 08:22:47;;;;;;;267.70;61.55;;;;;;;5.75;100.00;101987.59;5064205;28;20505;-85
2021/11/24 08:25:13;;;;;;;202.93;55.95;;;;;;;5.74;100.00;101988.56;5046896;28;20146;-86
2021/11/24 08:27:38;;;;;;;212.73;54.42;;;;;;;5.78;100.00;101987.38;5045917;28;20508;-86
2021/11/24 08:30:06;;;;;;;198.93;47.40;;;;;;;5.78;100.00;101984.72;5048888;28;20037;-86
2021/11/24 08:32:31;;;;;;;209.50;47.92;;;;;;;5.77;100.00;101985.69;5062871;28;20086;-86
2021/11/24 08:34:59;;;;;;;207.25;48.67;;;;;;;5.75;100.00;101971.63;5063313;28;20517;-86
2021/11/24 08:37:25;;;;;;;185.68;47.67;;;;;;;5.77;100.00;101975.88;5057731;28;20080;-85
2021/11/24 08:39:50;;;;;;;143.15;45.75;;;;;;;5.76;100.00;101978.66;5057144;28;20068;-85
2021/11/24 08:42:17;;;;;;;147.02;44.05;;;;;;;5.77;100.00;101970.56;5063641;28;20440;-85
2021/11/24 08:44:43;;;;;;;104.68;43.47;;;;;;;5.80;100.00;101964.16;5047705;28;20051;-86
2021/11/24 08:47:08;;;;;;;96.32;38.47;;;;;;;5.80;100.00;101970.34;5042864;28;20496;-86
2021/11/24 08:49:34;;;;;;;113.13;42.17;;;;;;;5.84;100.00;101968.31;5058860;28;20516;-85
2021/11/24 08:52:01;;;;;;;88.53;40.35;;;;;;;5.84;100.00;101968.31;5060703;28;20397;-85
2021/11/24 08:54:27;;;;;;;74.45;34.80;;;;;;;5.85;100.00;101967.38;5049113;28;20091;-85
2021/11/24 08:56:53;;;;;;;72.03;34.88;;;;;;;5.85;100.00;101965.56;5049497;28;20032;-85
2021/11/24 08:59:19;;;;;;;76.55;37.97;;;;;;;5.86;100.00;101963.75;5051480;28;20420;-85
2021/11/24 09:01:44;;;;;;;60.72;30.10;;;;;;;5.86;100.00;101953.94;5061790;28;20033;-85
2021/11/24 09:04:10;;;;;;;67.28;34.17;;;;;;;5.87;100.00;101952.16;5042051;28;20043;-85
2021/11/24 09:06:35;;;;;;;53.88;25.65;;;;;;;5.83;100.00;101959.47;5050719;28;20052;-86
2021/11/24 09:09:04;;;;;;;49.63;24.00;;;;;;;5.81;100.00;101960.53;5018524;28;20044;-86
2021/11/24 09:11:29;;;;;;;42.95;19.73;;;;;;;5.79;100.00;101954.47;5052459;28;20431;-85
2021/11/24 09:13:55;;;;;;;45.70;22.48;;;;;;;5.83;100.00;101954.16;5045191;28;20036;-86
2021/11/24 09:16:20;;;;;;;43.80;24.10;;;;;;;5.88;100.00;101953.84;5034693;28;20060;-85
2021/11/24 09:18:46;;;;;;;42.92;21.85;;;;;;;5.92;100.00;101954.47;5069853;28;20131;-86
2021/11/24 09:21:11;;;;;;;37.92;18.02;;;;;;;5.91;100.00;101950.97;5033980;28;20036;-85
2021/11/24 09:23:38;;;;;;;42.40;21.95;;;;;;;5.97;100.00;101950.56;5015620;28;20128;-85
2021/11/24 09:26:26;;;;;;;47.78;21.85;;;;;;;6.03;100.00;101944.81;5049163;28;20047;-85
2021/11/24 09:28:52;;;;;;;41.42;20.63;;;;;;;6.02;100.00;101953.78;5053808;28;20055;-85
2021/11/24 09:31:18;;;;;;;39.13;18.77;;;;;;;6.03;100.00;101951.97;5067333;28;20071;-86
2021/11/24 09:33:44;;;;;;;34.13;18.02;;;;;;;6.00;100.00;101947.69;5050887;28;20068;-86
2021/11/24 09:36:10;;;;;;;35.92;20.25;;;;;;;6.07;100.00;101945.44;5049897;28;20550;-85
2021/11/24 09:38:36;;;;;;;34.17;19.08;;;;;;;6.08;100.00;101941.84;5069454;28;20051;-87
2021/11/24 09:41:07;;;;;;;29.05;16.42;;;;;;;6.11;100.00;101941.63;5051111;28;20404;-86
2021/11/24 09:43:36;;;;;;;30.73;15.77;;;;;;;6.07;100.00;101937.44;5046141;28;20037;-86
2021/11/24 09:46:04;;;;;;;32.28;16.33;;;;;;;6.13;100.00;101933.50;5052161;28;20036;-86
2021/11/24 09:48:30;;;;;;;34.13;17.85;;;;;;;6.13;100.00;101933.50;5033304;28;20140;-86
2021/11/24 09:50:56;;;;;;;34.83;17.02;;;;;;;6.15;100.00;101937.78;5051781;28;20478;-86
2021/11/24 09:53:22;;;;;;;36.67;19.88;;;;;;;6.19;100.00;101922.44;5067850;28;20047;-86
2021/11/24 09:55:48;;;;;;;44.38;21.00;;;;;;;6.22;100.00;101917.75;5068196;28;20063;-85
2021/11/24 09:58:15;;;;;;;37.50;17.95;;;;;;;6.21;100.00;101915.16;5050638;28;20109;-85
2021/11/24 10:00:42;;;;;;;39.47;19.73;;;;;;;6.21;100.00;101904.50;5062310;28;20132;-84
2021/11/24 10:03:10;;;;;;;43.78;21.85;;;;;;;6.26;100.00;101900.56;5047045;28;20041;-85
2021/11/24 10:05:35;;;;;;;37.77;18.57;;;;;;;6.28;100.00;101881.81;5062674;28;20068;-86
2021/11/24 10:08:01;;;;;;;30.48;15.48;;;;;;;6.25;100.00;101888.19;5051580;28;20059;-86
2021/11/24 10:10:27;;;;;;;37.67;17.15;;;;;;;6.27;100.00;101877.41;5050649;28;20040;-86
2021/11/24 10:12:54;;;;;;;32.72;15.52;;;;;;;6.28;100.00;101879.97;5063053;28;20086;-85
2021/11/24 10:15:48;;;;;;;38.22;18.15;;;;;;;6.35;100.00;101875.03;5062884;28;20032;-86
2021/11/24 10:18:19;;;;;;;33.72;17.58;;;;;;;6.40;100.00;101875.56;5063384;28;20067;-85
2021/11/24 10:20:53;;;;;;;31.02;15.95;;;;;;;6.42;100.00;101873.66;5051115;28;20397;-86
2021/11/24 10:23:32;;;;;;;27.83;13.48;;;;;;;6.38;100.00;101874.81;5049947;28;20512;-85
2021/11/24 10:26:22;;;;;;;28.33;16.70;;;;;;;6.38;100.00;101869.50;5068364;28;20040;-85
2021/11/24 10:28:57;;;;;;;28.17;15.82;;;;;;;6.42;100.00;101856.81;5027458;28;20448;-85
2021/11/24 10:31:30;;;;;;;26.58;14.05;;;;;;;6.42;100.00;101855.00;5050206;28;20168;-86
2021/11/24 10:33:57;;;;;;;26.58;15.23;;;;;;;6.41;100.00;101855.94;5050240;28;20040;-86
2021/11/24 10:36:22;;;;;;;28.83;17.08;;;;;;;6.43;100.00;101856.69;5032763;28;20094;-85
2021/11/24 10:38:51;;;;;;;28.83;16.40;;;;;;;6.48;100.00;101845.69;5050960;28;20135;-85
2021/11/24 10:41:39;;;;;;;27.17;14.23;;;;;;;6.47;100.00;101847.53;5035452;28;20055;-86
2021/11/24 10:44:05;;;;;;;29.73;15.90;;;;;;;6.49;100.00;101840.25;5063844;28;20040;-85
2021/11/24 10:46:33;;;;;;;32.25;17.27;;;;;;;6.49;100.00;101834.91;5047455;28;20270;-86
2021/11/24 10:49:05;;;;;;;27.33;16.13;;;;;;;6.53;100.00;101832.84;5041566;28;20138;-84
2021/11/24 10:51:39;;;;;;;26.52;15.50;;;;;;;6.54;100.00;101826.56;5065281;28;20048;-85
2021/11/24 10:54:12;;;;;;;26.65;15.95;;;;;;;6.53;100.00;101833.72;5071231;28;20121;-86
2021/11/24 10:57:01;;;;;;;29.88;17.45;;;;;;;6.60;100.00;101827.94;5071266;28;20093;-86
2021/11/24 10:59:29;;;;;;;;;;;;;;;6.60;100.00;101819.94;5053231;28;20040;-85
2021/11/24 11:02:14;;;;;;;30.60;17.42;;;;;;;6.59;100.00;101820.88;5069727;28;19959;-85
2021/11/24 11:05:01;;;;;;;28.38;16.67;;;;;;;6.62;100.00;101818.00;5048552;28;20157;-85
2021/11/24 11:07:28;;;;;;;28.77;16.23;;;;;;;6.64;100.00;101816.91;5053713;28;20037;-86